sensor_id;sensor_type;location;lat;lon;timestamp;P1;durP1;ratioP1;P2;durP2;ratioP2
37091;SDS011;23005;51.998;4.502;2022-08-19T00:01:24;12.68;;;8.27;;
37091;SDS011;23005;51.998;4.502;2022-08-19T00:03:19;16.67;;;8.52;;
37091;SDS011;23005;51.998;4.502;2022-08-19T00:05:10;13.00;;;8.15;;
37091;SDS011;23005;51.998;4.502;2022-08-19T00:07:05;18.38;;;8.70;;
37091;SDS011;23005;51.998;4.502;2022-08-19T00:08:56;13.38;;;8.45;;
37091;SDS011;23005;51.998;4.502;2022-08-19T00:10:48;14.95;;;8.88;;
37091;SDS011;23005;51.998;4.502;2022-08-19T00:12:39;15.98;;;9.13;;
37091;SDS011;23005;51.998;4.502;2022-08-19T00:14:37;15.65;;;9.10;;
37091;SDS011;23005;51.998;4.502;2022-08-19T00:18:19;14.75;;;9.50;;
37091;SDS011;23005;51.998;4.502;2022-08-19T00:20:12;14.65;;;9.05;;
37091;SDS011;23005;51.998;4.502;2022-08-19T00:22:06;14.70;;;8.77;;
37091;SDS011;23005;51.998;4.502;2022-08-19T00:25:48;12.13;;;9.00;;
37091;SDS011;23005;51.998;4.502;2022-08-19T00:27:41;16.05;;;9.30;;
37091;SDS011;23005;51.998;4.502;2022-08-19T00:29:32;17.80;;;8.82;;
37091;SDS011;23005;51.998;4.502;2022-08-19T00:31:23;16.00;;;9.13;;
37091;SDS011;23005;51.998;4.502;2022-08-19T00:33:14;19.05;;;8.55;;
37091;SDS011;23005;51.998;4.502;2022-08-19T00:35:07;15.07;;;9.10;;
37091;SDS011;23005;51.998;4.502;2022-08-19T00:36:58;15.10;;;8.57;;
37091;SDS011;23005;51.998;4.502;2022-08-19T00:38:50;17.48;;;9.80;;
37091;SDS011;23005;51.998;4.502;2022-08-19T00:42:32;18.85;;;9.57;;
37091;SDS011;23005;51.998;4.502;2022-08-19T00:44:25;15.13;;;10.00;;
37091;SDS011;23005;51.998;4.502;2022-08-19T00:46:18;15.25;;;9.82;;
37091;SDS011;23005;51.998;4.502;2022-08-19T00:48:09;18.75;;;9.77;;
37091;SDS011;23005;51.998;4.502;2022-08-19T00:50:04;13.95;;;9.63;;
37091;SDS011;23005;51.998;4.502;2022-08-19T00:52:00;13.15;;;9.50;;
37091;SDS011;23005;51.998;4.502;2022-08-19T00:53:57;16.02;;;9.02;;
37091;SDS011;23005;51.998;4.502;2022-08-19T00:55:49;18.05;;;9.55;;
37091;SDS011;23005;51.998;4.502;2022-08-19T00:57:48;14.30;;;9.50;;
37091;SDS011;23005;51.998;4.502;2022-08-19T00:59:45;14.15;;;9.65;;
37091;SDS011;23005;51.998;4.502;2022-08-19T01:01:51;12.65;;;9.00;;
37091;SDS011;23005;51.998;4.502;2022-08-19T01:03:43;14.98;;;9.32;;
37091;SDS011;23005;51.998;4.502;2022-08-19T01:05:48;12.10;;;8.82;;
37091;SDS011;23005;51.998;4.502;2022-08-19T01:07:42;13.52;;;9.20;;
37091;SDS011;23005;51.998;4.502;2022-08-19T01:11:26;16.67;;;9.13;;
37091;SDS011;23005;51.998;4.502;2022-08-19T01:13:19;15.30;;;9.15;;
37091;SDS011;23005;51.998;4.502;2022-08-19T01:15:14;15.70;;;9.38;;
37091;SDS011;23005;51.998;4.502;2022-08-19T01:17:10;17.75;;;9.82;;
37091;SDS011;23005;51.998;4.502;2022-08-19T01:19:02;15.27;;;9.13;;
37091;SDS011;23005;51.998;4.502;2022-08-19T01:20:55;12.57;;;8.32;;
37091;SDS011;23005;51.998;4.502;2022-08-19T01:22:52;17.98;;;9.63;;
37091;SDS011;23005;51.998;4.502;2022-08-19T01:24:45;16.10;;;9.55;;
37091;SDS011;23005;51.998;4.502;2022-08-19T01:26:40;14.15;;;9.77;;
37091;SDS011;23005;51.998;4.502;2022-08-19T01:28:32;20.27;;;10.15;;
37091;SDS011;23005;51.998;4.502;2022-08-19T01:30:31;14.52;;;9.45;;
37091;SDS011;23005;51.998;4.502;2022-08-19T01:32:24;18.58;;;9.32;;
37091;SDS011;23005;51.998;4.502;2022-08-19T01:34:22;16.10;;;9.30;;
37091;SDS011;23005;51.998;4.502;2022-08-19T01:36:15;19.63;;;10.18;;
37091;SDS011;23005;51.998;4.502;2022-08-19T01:38:21;18.75;;;10.48;;
37091;SDS011;23005;51.998;4.502;2022-08-19T01:40:15;17.92;;;10.07;;
37091;SDS011;23005;51.998;4.502;2022-08-19T01:43:59;17.15;;;10.30;;
37091;SDS011;23005;51.998;4.502;2022-08-19T01:46:08;17.27;;;9.70;;
37091;SDS011;23005;51.998;4.502;2022-08-19T01:47:59;16.10;;;9.75;;
37091;SDS011;23005;51.998;4.502;2022-08-19T01:49:51;19.58;;;10.63;;
37091;SDS011;23005;51.998;4.502;2022-08-19T01:51:42;17.30;;;10.80;;
37091;SDS011;23005;51.998;4.502;2022-08-19T01:53:36;17.95;;;11.18;;
37091;SDS011;23005;51.998;4.502;2022-08-19T01:55:27;24.05;;;11.00;;
37091;SDS011;23005;51.998;4.502;2022-08-19T01:57:18;18.30;;;10.68;;
37091;SDS011;23005;51.998;4.502;2022-08-19T01:59:10;19.73;;;11.32;;
37091;SDS011;23005;51.998;4.502;2022-08-19T02:01:06;23.08;;;13.57;;
37091;SDS011;23005;51.998;4.502;2022-08-19T02:02:58;19.58;;;12.55;;
37091;SDS011;23005;51.998;4.502;2022-08-19T02:04:49;25.92;;;15.43;;
37091;SDS011;23005;51.998;4.502;2022-08-19T02:06:40;22.88;;;16.50;;
37091;SDS011;23005;51.998;4.502;2022-08-19T02:08:34;24.33;;;16.63;;
37091;SDS011;23005;51.998;4.502;2022-08-19T02:10:29;31.35;;;17.95;;
37091;SDS011;23005;51.998;4.502;2022-08-19T02:12:21;28.43;;;18.67;;
37091;SDS011;23005;51.998;4.502;2022-08-19T02:14:11;28.02;;;18.42;;
37091;SDS011;23005;51.998;4.502;2022-08-19T02:16:03;30.08;;;19.58;;
37091;SDS011;23005;51.998;4.502;2022-08-19T02:17:54;25.97;;;19.20;;
37091;SDS011;23005;51.998;4.502;2022-08-19T02:19:45;28.27;;;19.77;;
37091;SDS011;23005;51.998;4.502;2022-08-19T02:21:36;33.45;;;21.30;;
37091;SDS011;23005;51.998;4.502;2022-08-19T02:23:27;30.15;;;21.85;;
37091;SDS011;23005;51.998;4.502;2022-08-19T02:25:19;31.48;;;21.65;;
37091;SDS011;23005;51.998;4.502;2022-08-19T02:27:10;35.80;;;23.02;;
37091;SDS011;23005;51.998;4.502;2022-08-19T02:29:01;29.52;;;21.70;;
37091;SDS011;23005;51.998;4.502;2022-08-19T02:30:53;35.63;;;23.02;;
37091;SDS011;23005;51.998;4.502;2022-08-19T02:32:44;30.85;;;22.73;;
37091;SDS011;23005;51.998;4.502;2022-08-19T02:34:36;30.02;;;22.17;;
37091;SDS011;23005;51.998;4.502;2022-08-19T02:36:28;39.05;;;24.27;;
37091;SDS011;23005;51.998;4.502;2022-08-19T02:38:19;36.05;;;24.17;;
37091;SDS011;23005;51.998;4.502;2022-08-19T02:40:10;37.15;;;24.75;;
37091;SDS011;23005;51.998;4.502;2022-08-19T02:42:03;38.72;;;26.27;;
37091;SDS011;23005;51.998;4.502;2022-08-19T02:43:55;39.67;;;26.67;;
37091;SDS011;23005;51.998;4.502;2022-08-19T02:46:11;37.40;;;26.33;;
37091;SDS011;23005;51.998;4.502;2022-08-19T02:48:07;39.65;;;26.40;;
37091;SDS011;23005;51.998;4.502;2022-08-19T02:52:00;39.47;;;25.95;;
37091;SDS011;23005;51.998;4.502;2022-08-19T02:53:53;37.17;;;26.45;;
37091;SDS011;23005;51.998;4.502;2022-08-19T02:55:44;37.87;;;26.13;;
37091;SDS011;23005;51.998;4.502;2022-08-19T02:57:38;39.42;;;27.17;;
37091;SDS011;23005;51.998;4.502;2022-08-19T02:59:29;38.80;;;26.80;;
37091;SDS011;23005;51.998;4.502;2022-08-19T03:01:21;44.47;;;28.40;;
37091;SDS011;23005;51.998;4.502;2022-08-19T03:03:13;45.67;;;29.45;;
37091;SDS011;23005;51.998;4.502;2022-08-19T03:05:05;40.38;;;27.85;;
37091;SDS011;23005;51.998;4.502;2022-08-19T03:06:58;41.17;;;28.27;;
37091;SDS011;23005;51.998;4.502;2022-08-19T03:08:59;44.92;;;31.30;;
37091;SDS011;23005;51.998;4.502;2022-08-19T03:10:50;48.78;;;31.90;;
37091;SDS011;23005;51.998;4.502;2022-08-19T03:12:42;52.58;;;33.03;;
37091;SDS011;23005;51.998;4.502;2022-08-19T03:14:33;51.10;;;34.40;;
37091;SDS011;23005;51.998;4.502;2022-08-19T03:16:26;57.13;;;35.80;;
37091;SDS011;23005;51.998;4.502;2022-08-19T03:18:22;57.25;;;36.40;;
37091;SDS011;23005;51.998;4.502;2022-08-19T03:20:13;58.28;;;37.05;;
37091;SDS011;23005;51.998;4.502;2022-08-19T03:22:04;60.72;;;38.40;;
37091;SDS011;23005;51.998;4.502;2022-08-19T03:23:55;62.42;;;39.30;;
37091;SDS011;23005;51.998;4.502;2022-08-19T03:27:54;59.80;;;39.10;;
37091;SDS011;23005;51.998;4.502;2022-08-19T03:29:45;66.05;;;40.33;;
37091;SDS011;23005;51.998;4.502;2022-08-19T03:31:39;67.22;;;39.97;;
37091;SDS011;23005;51.998;4.502;2022-08-19T03:33:41;69.60;;;40.97;;
37091;SDS011;23005;51.998;4.502;2022-08-19T03:35:34;65.20;;;39.92;;
37091;SDS011;23005;51.998;4.502;2022-08-19T03:37:25;66.32;;;42.28;;
37091;SDS011;23005;51.998;4.502;2022-08-19T03:39:16;61.38;;;40.92;;
37091;SDS011;23005;51.998;4.502;2022-08-19T03:41:08;74.15;;;42.40;;
37091;SDS011;23005;51.998;4.502;2022-08-19T03:43:04;68.50;;;41.63;;
37091;SDS011;23005;51.998;4.502;2022-08-19T03:46:46;72.72;;;41.67;;
37091;SDS011;23005;51.998;4.502;2022-08-19T03:48:40;65.10;;;40.60;;
37091;SDS011;23005;51.998;4.502;2022-08-19T03:50:32;65.05;;;40.58;;
37091;SDS011;23005;51.998;4.502;2022-08-19T03:52:28;69.32;;;41.75;;
37091;SDS011;23005;51.998;4.502;2022-08-19T03:54:20;70.05;;;43.60;;
37091;SDS011;23005;51.998;4.502;2022-08-19T03:56:13;82.90;;;46.55;;
37091;SDS011;23005;51.998;4.502;2022-08-19T03:59:57;67.53;;;41.78;;
37091;SDS011;23005;51.998;4.502;2022-08-19T04:02:05;81.95;;;46.67;;
37091;SDS011;23005;51.998;4.502;2022-08-19T04:03:59;78.80;;;43.88;;
37091;SDS011;23005;51.998;4.502;2022-08-19T04:05:50;83.27;;;46.17;;
37091;SDS011;23005;51.998;4.502;2022-08-19T04:07:41;77.05;;;45.13;;
37091;SDS011;23005;51.998;4.502;2022-08-19T04:09:32;80.63;;;47.42;;
37091;SDS011;23005;51.998;4.502;2022-08-19T04:11:25;86.60;;;48.50;;
37091;SDS011;23005;51.998;4.502;2022-08-19T04:13:35;82.63;;;45.83;;
37091;SDS011;23005;51.998;4.502;2022-08-19T04:15:26;89.40;;;49.38;;
37091;SDS011;23005;51.998;4.502;2022-08-19T04:17:17;92.63;;;50.57;;
37091;SDS011;23005;51.998;4.502;2022-08-19T04:19:08;90.20;;;49.67;;
37091;SDS011;23005;51.998;4.502;2022-08-19T04:21:00;90.72;;;50.50;;
37091;SDS011;23005;51.998;4.502;2022-08-19T04:22:51;108.55;;;52.83;;
37091;SDS011;23005;51.998;4.502;2022-08-19T04:24:45;87.18;;;49.70;;
37091;SDS011;23005;51.998;4.502;2022-08-19T04:26:35;94.97;;;51.85;;
37091;SDS011;23005;51.998;4.502;2022-08-19T04:28:26;102.00;;;53.42;;
37091;SDS011;23005;51.998;4.502;2022-08-19T04:30:19;102.75;;;52.65;;
37091;SDS011;23005;51.998;4.502;2022-08-19T04:32:10;94.32;;;51.10;;
37091;SDS011;23005;51.998;4.502;2022-08-19T04:34:02;99.95;;;51.80;;
37091;SDS011;23005;51.998;4.502;2022-08-19T04:35:55;93.07;;;47.10;;
37091;SDS011;23005;51.998;4.502;2022-08-19T04:37:46;103.78;;;50.17;;
37091;SDS011;23005;51.998;4.502;2022-08-19T04:39:37;100.65;;;49.40;;
37091;SDS011;23005;51.998;4.502;2022-08-19T04:41:28;109.05;;;49.65;;
37091;SDS011;23005;51.998;4.502;2022-08-19T04:43:19;101.93;;;49.65;;
37091;SDS011;23005;51.998;4.502;2022-08-19T04:45:12;94.35;;;49.55;;
37091;SDS011;23005;51.998;4.502;2022-08-19T04:47:07;107.90;;;52.40;;
37091;SDS011;23005;51.998;4.502;2022-08-19T04:49:00;111.53;;;49.47;;
37091;SDS011;23005;51.998;4.502;2022-08-19T04:51:10;112.65;;;53.05;;
37091;SDS011;23005;51.998;4.502;2022-08-19T04:53:02;117.47;;;53.13;;
37091;SDS011;23005;51.998;4.502;2022-08-19T04:54:53;112.70;;;53.33;;
37091;SDS011;23005;51.998;4.502;2022-08-19T04:56:44;117.57;;;51.55;;
37091;SDS011;23005;51.998;4.502;2022-08-19T04:58:36;116.30;;;51.85;;
37091;SDS011;23005;51.998;4.502;2022-08-19T05:00:29;113.30;;;51.10;;
37091;SDS011;23005;51.998;4.502;2022-08-19T05:02:25;108.10;;;52.35;;
37091;SDS011;23005;51.998;4.502;2022-08-19T05:04:18;111.45;;;52.65;;
37091;SDS011;23005;51.998;4.502;2022-08-19T05:06:11;109.13;;;51.60;;
37091;SDS011;23005;51.998;4.502;2022-08-19T05:08:03;110.22;;;50.80;;
37091;SDS011;23005;51.998;4.502;2022-08-19T05:09:54;130.02;;;53.92;;
37091;SDS011;23005;51.998;4.502;2022-08-19T05:11:47;106.88;;;49.55;;
37091;SDS011;23005;51.998;4.502;2022-08-19T05:13:38;119.35;;;51.47;;
37091;SDS011;23005;51.998;4.502;2022-08-19T05:15:30;122.20;;;53.17;;
37091;SDS011;23005;51.998;4.502;2022-08-19T05:17:21;113.97;;;50.40;;
37091;SDS011;23005;51.998;4.502;2022-08-19T05:19:34;104.13;;;51.90;;
37091;SDS011;23005;51.998;4.502;2022-08-19T05:21:24;116.35;;;52.58;;
37091;SDS011;23005;51.998;4.502;2022-08-19T05:23:15;103.57;;;51.77;;
37091;SDS011;23005;51.998;4.502;2022-08-19T05:25:12;119.25;;;50.85;;
37091;SDS011;23005;51.998;4.502;2022-08-19T05:27:06;112.07;;;51.97;;
37091;SDS011;23005;51.998;4.502;2022-08-19T05:28:57;108.72;;;52.55;;
37091;SDS011;23005;51.998;4.502;2022-08-19T05:30:49;110.90;;;50.30;;
37091;SDS011;23005;51.998;4.502;2022-08-19T05:32:42;107.53;;;50.25;;
37091;SDS011;23005;51.998;4.502;2022-08-19T05:34:32;103.82;;;51.20;;
37091;SDS011;23005;51.998;4.502;2022-08-19T05:36:23;104.75;;;51.70;;
37091;SDS011;23005;51.998;4.502;2022-08-19T05:38:14;103.35;;;51.42;;
37091;SDS011;23005;51.998;4.502;2022-08-19T05:40:07;106.15;;;51.38;;
37091;SDS011;23005;51.998;4.502;2022-08-19T05:42:00;107.22;;;53.25;;
37091;SDS011;23005;51.998;4.502;2022-08-19T05:43:53;106.13;;;52.75;;
37091;SDS011;23005;51.998;4.502;2022-08-19T05:45:44;93.15;;;52.30;;
37091;SDS011;23005;51.998;4.502;2022-08-19T05:47:35;104.45;;;53.15;;
37091;SDS011;23005;51.998;4.502;2022-08-19T05:49:32;109.82;;;51.40;;
37091;SDS011;23005;51.998;4.502;2022-08-19T05:51:23;100.35;;;52.58;;
37091;SDS011;23005;51.998;4.502;2022-08-19T05:53:18;100.40;;;50.30;;
37091;SDS011;23005;51.998;4.502;2022-08-19T05:55:09;98.28;;;50.63;;
37091;SDS011;23005;51.998;4.502;2022-08-19T05:57:00;94.65;;;47.92;;
37091;SDS011;23005;51.998;4.502;2022-08-19T05:58:51;90.68;;;46.20;;
37091;SDS011;23005;51.998;4.502;2022-08-19T06:00:43;90.22;;;49.78;;
37091;SDS011;23005;51.998;4.502;2022-08-19T06:02:35;86.78;;;45.85;;
37091;SDS011;23005;51.998;4.502;2022-08-19T06:04:26;98.32;;;46.05;;
37091;SDS011;23005;51.998;4.502;2022-08-19T06:06:19;85.60;;;46.50;;
37091;SDS011;23005;51.998;4.502;2022-08-19T06:08:10;95.13;;;46.10;;
37091;SDS011;23005;51.998;4.502;2022-08-19T06:10:01;90.80;;;48.40;;
37091;SDS011;23005;51.998;4.502;2022-08-19T06:11:52;83.80;;;46.58;;
37091;SDS011;23005;51.998;4.502;2022-08-19T06:13:45;80.60;;;46.08;;
37091;SDS011;23005;51.998;4.502;2022-08-19T06:15:38;92.25;;;48.45;;
37091;SDS011;23005;51.998;4.502;2022-08-19T06:17:29;88.70;;;45.88;;
37091;SDS011;23005;51.998;4.502;2022-08-19T06:19:22;92.15;;;47.30;;
37091;SDS011;23005;51.998;4.502;2022-08-19T06:21:13;87.60;;;43.55;;
37091;SDS011;23005;51.998;4.502;2022-08-19T06:23:13;95.82;;;45.08;;
37091;SDS011;23005;51.998;4.502;2022-08-19T06:25:06;89.13;;;44.58;;
37091;SDS011;23005;51.998;4.502;2022-08-19T06:28:52;83.03;;;45.20;;
37091;SDS011;23005;51.998;4.502;2022-08-19T06:30:43;70.50;;;42.50;;
37091;SDS011;23005;51.998;4.502;2022-08-19T06:32:34;85.97;;;44.65;;
37091;SDS011;23005;51.998;4.502;2022-08-19T06:34:32;80.05;;;42.42;;
37091;SDS011;23005;51.998;4.502;2022-08-19T06:36:25;88.25;;;45.38;;
37091;SDS011;23005;51.998;4.502;2022-08-19T06:38:20;87.85;;;44.97;;
37091;SDS011;23005;51.998;4.502;2022-08-19T06:40:11;94.70;;;45.38;;
37091;SDS011;23005;51.998;4.502;2022-08-19T06:42:03;80.85;;;45.33;;
37091;SDS011;23005;51.998;4.502;2022-08-19T06:43:57;76.40;;;44.20;;
37091;SDS011;23005;51.998;4.502;2022-08-19T06:45:48;84.15;;;42.30;;
37091;SDS011;23005;51.998;4.502;2022-08-19T06:47:39;84.00;;;44.08;;
37091;SDS011;23005;51.998;4.502;2022-08-19T06:49:31;81.50;;;44.03;;
37091;SDS011;23005;51.998;4.502;2022-08-19T06:51:23;84.63;;;42.43;;
37091;SDS011;23005;51.998;4.502;2022-08-19T06:53:20;81.38;;;42.25;;
37091;SDS011;23005;51.998;4.502;2022-08-19T06:55:12;85.47;;;44.67;;
37091;SDS011;23005;51.998;4.502;2022-08-19T06:57:03;87.95;;;45.05;;
37091;SDS011;23005;51.998;4.502;2022-08-19T06:58:54;85.22;;;42.33;;
37091;SDS011;23005;51.998;4.502;2022-08-19T07:00:48;89.00;;;42.70;;
37091;SDS011;23005;51.998;4.502;2022-08-19T07:02:38;80.45;;;42.05;;
37091;SDS011;23005;51.998;4.502;2022-08-19T07:04:32;82.00;;;43.90;;
37091;SDS011;23005;51.998;4.502;2022-08-19T07:06:25;75.10;;;42.38;;
37091;SDS011;23005;51.998;4.502;2022-08-19T07:08:35;75.43;;;41.15;;
37091;SDS011;23005;51.998;4.502;2022-08-19T07:10:32;73.70;;;41.40;;
37091;SDS011;23005;51.998;4.502;2022-08-19T07:12:23;79.28;;;45.00;;
37091;SDS011;23005;51.998;4.502;2022-08-19T07:14:16;80.97;;;41.63;;
37091;SDS011;23005;51.998;4.502;2022-08-19T07:16:11;73.75;;;42.15;;
37091;SDS011;23005;51.998;4.502;2022-08-19T07:18:17;72.80;;;40.25;;
37091;SDS011;23005;51.998;4.502;2022-08-19T07:20:09;78.93;;;41.60;;
37091;SDS011;23005;51.998;4.502;2022-08-19T07:22:01;80.57;;;40.10;;
37091;SDS011;23005;51.998;4.502;2022-08-19T07:23:56;64.95;;;38.95;;
37091;SDS011;23005;51.998;4.502;2022-08-19T07:25:54;60.60;;;38.20;;
37091;SDS011;23005;51.998;4.502;2022-08-19T07:27:44;65.45;;;37.33;;
37091;SDS011;23005;51.998;4.502;2022-08-19T07:29:43;57.30;;;34.97;;
37091;SDS011;23005;51.998;4.502;2022-08-19T07:31:34;61.97;;;34.33;;
37091;SDS011;23005;51.998;4.502;2022-08-19T07:33:24;61.50;;;35.38;;
37091;SDS011;23005;51.998;4.502;2022-08-19T07:35:17;57.70;;;33.58;;
37091;SDS011;23005;51.998;4.502;2022-08-19T07:37:08;60.03;;;34.15;;
37091;SDS011;23005;51.998;4.502;2022-08-19T07:39:01;58.30;;;30.00;;
37091;SDS011;23005;51.998;4.502;2022-08-19T07:40:56;57.25;;;29.50;;
37091;SDS011;23005;51.998;4.502;2022-08-19T07:42:47;56.30;;;30.20;;
37091;SDS011;23005;51.998;4.502;2022-08-19T07:44:37;60.88;;;28.88;;
37091;SDS011;23005;51.998;4.502;2022-08-19T07:46:29;51.53;;;27.70;;
37091;SDS011;23005;51.998;4.502;2022-08-19T07:48:21;50.50;;;26.73;;
37091;SDS011;23005;51.998;4.502;2022-08-19T07:50:11;56.35;;;28.95;;
37091;SDS011;23005;51.998;4.502;2022-08-19T07:52:04;51.05;;;28.35;;
37091;SDS011;23005;51.998;4.502;2022-08-19T07:53:59;57.67;;;27.92;;
37091;SDS011;23005;51.998;4.502;2022-08-19T07:57:41;54.17;;;27.67;;
37091;SDS011;23005;51.998;4.502;2022-08-19T07:59:33;51.72;;;30.92;;
37091;SDS011;23005;51.998;4.502;2022-08-19T08:01:25;57.65;;;29.42;;
37091;SDS011;23005;51.998;4.502;2022-08-19T08:03:17;51.08;;;29.25;;
37091;SDS011;23005;51.998;4.502;2022-08-19T08:05:10;50.70;;;26.58;;
37091;SDS011;23005;51.998;4.502;2022-08-19T08:07:02;41.63;;;26.25;;
37091;SDS011;23005;51.998;4.502;2022-08-19T08:08:54;42.63;;;24.50;;
37091;SDS011;23005;51.998;4.502;2022-08-19T08:10:49;46.85;;;25.05;;
37091;SDS011;23005;51.998;4.502;2022-08-19T08:12:43;50.80;;;25.17;;
37091;SDS011;23005;51.998;4.502;2022-08-19T08:14:55;45.38;;;24.30;;
37091;SDS011;23005;51.998;4.502;2022-08-19T08:16:48;46.42;;;24.95;;
37091;SDS011;23005;51.998;4.502;2022-08-19T08:18:40;39.88;;;22.35;;
37091;SDS011;23005;51.998;4.502;2022-08-19T08:20:30;42.95;;;22.10;;
37091;SDS011;23005;51.998;4.502;2022-08-19T08:22:21;46.10;;;22.45;;
37091;SDS011;23005;51.998;4.502;2022-08-19T08:24:14;36.97;;;20.98;;
37091;SDS011;23005;51.998;4.502;2022-08-19T08:26:07;33.83;;;20.73;;
37091;SDS011;23005;51.998;4.502;2022-08-19T08:27:59;45.30;;;21.27;;
37091;SDS011;23005;51.998;4.502;2022-08-19T08:29:50;40.85;;;20.80;;
37091;SDS011;23005;51.998;4.502;2022-08-19T08:31:41;38.75;;;20.58;;
37091;SDS011;23005;51.998;4.502;2022-08-19T08:33:33;41.83;;;19.50;;
37091;SDS011;23005;51.998;4.502;2022-08-19T08:35:24;39.28;;;18.08;;
37091;SDS011;23005;51.998;4.502;2022-08-19T08:37:15;40.70;;;19.98;;
37091;SDS011;23005;51.998;4.502;2022-08-19T08:39:06;42.85;;;19.23;;
37091;SDS011;23005;51.998;4.502;2022-08-19T08:40:58;36.83;;;17.67;;
37091;SDS011;23005;51.998;4.502;2022-08-19T08:42:57;40.30;;;16.83;;
37091;SDS011;23005;51.998;4.502;2022-08-19T08:45:00;38.58;;;16.48;;
37091;SDS011;23005;51.998;4.502;2022-08-19T08:46:56;35.28;;;16.23;;
37091;SDS011;23005;51.998;4.502;2022-08-19T08:48:53;27.40;;;14.88;;
37091;SDS011;23005;51.998;4.502;2022-08-19T08:50:49;33.35;;;15.40;;
37091;SDS011;23005;51.998;4.502;2022-08-19T08:52:45;36.95;;;16.55;;
37091;SDS011;23005;51.998;4.502;2022-08-19T08:54:40;30.52;;;14.90;;
37091;SDS011;23005;51.998;4.502;2022-08-19T08:56:45;25.80;;;14.32;;
37091;SDS011;23005;51.998;4.502;2022-08-19T08:58:49;25.35;;;14.25;;
37091;SDS011;23005;51.998;4.502;2022-08-19T09:00:48;30.45;;;15.10;;
37091;SDS011;23005;51.998;4.502;2022-08-19T09:02:39;23.02;;;14.02;;
37091;SDS011;23005;51.998;4.502;2022-08-19T09:04:33;27.33;;;13.02;;
37091;SDS011;23005;51.998;4.502;2022-08-19T09:06:25;26.63;;;13.18;;
37091;SDS011;23005;51.998;4.502;2022-08-19T09:08:34;24.50;;;12.63;;
37091;SDS011;23005;51.998;4.502;2022-08-19T09:10:38;28.95;;;11.45;;
37091;SDS011;23005;51.998;4.502;2022-08-19T09:12:35;28.58;;;13.15;;
37091;SDS011;23005;51.998;4.502;2022-08-19T09:14:39;29.05;;;12.98;;
37091;SDS011;23005;51.998;4.502;2022-08-19T09:16:40;28.23;;;12.60;;
37091;SDS011;23005;51.998;4.502;2022-08-19T09:18:38;22.02;;;11.35;;
37091;SDS011;23005;51.998;4.502;2022-08-19T09:20:30;24.75;;;12.07;;
37091;SDS011;23005;51.998;4.502;2022-08-19T09:22:22;26.90;;;11.98;;
37091;SDS011;23005;51.998;4.502;2022-08-19T09:24:16;24.35;;;11.45;;
37091;SDS011;23005;51.998;4.502;2022-08-19T09:26:07;23.83;;;11.77;;
37091;SDS011;23005;51.998;4.502;2022-08-19T09:28:01;24.08;;;11.70;;
37091;SDS011;23005;51.998;4.502;2022-08-19T09:30:12;20.98;;;10.30;;
37091;SDS011;23005;51.998;4.502;2022-08-19T09:34:16;24.55;;;10.98;;
37091;SDS011;23005;51.998;4.502;2022-08-19T09:36:11;25.52;;;10.38;;
37091;SDS011;23005;51.998;4.502;2022-08-19T09:38:23;25.88;;;10.82;;
37091;SDS011;23005;51.998;4.502;2022-08-19T09:40:15;24.35;;;10.00;;
37091;SDS011;23005;51.998;4.502;2022-08-19T09:42:07;21.58;;;9.45;;
37091;SDS011;23005;51.998;4.502;2022-08-19T09:44:18;16.55;;;9.23;;
37091;SDS011;23005;51.998;4.502;2022-08-19T09:46:10;25.55;;;8.82;;
37091;SDS011;23005;51.998;4.502;2022-08-19T09:48:07;18.85;;;8.82;;
37091;SDS011;23005;51.998;4.502;2022-08-19T09:49:58;16.55;;;8.75;;
37091;SDS011;23005;51.998;4.502;2022-08-19T09:51:49;16.90;;;7.95;;
37091;SDS011;23005;51.998;4.502;2022-08-19T09:53:41;17.27;;;8.40;;
37091;SDS011;23005;51.998;4.502;2022-08-19T09:55:33;19.08;;;7.60;;
37091;SDS011;23005;51.998;4.502;2022-08-19T09:57:24;17.63;;;7.40;;
37091;SDS011;23005;51.998;4.502;2022-08-19T09:59:15;17.63;;;6.45;;
37091;SDS011;23005;51.998;4.502;2022-08-19T10:01:07;15.68;;;6.05;;
37091;SDS011;23005;51.998;4.502;2022-08-19T10:03:00;14.45;;;6.10;;
37091;SDS011;23005;51.998;4.502;2022-08-19T10:04:52;13.02;;;6.00;;
37091;SDS011;23005;51.998;4.502;2022-08-19T10:06:43;11.88;;;5.00;;
37091;SDS011;23005;51.998;4.502;2022-08-19T10:10:28;14.18;;;5.55;;
37091;SDS011;23005;51.998;4.502;2022-08-19T10:12:22;11.25;;;4.80;;
37091;SDS011;23005;51.998;4.502;2022-08-19T10:14:15;13.27;;;4.97;;
37091;SDS011;23005;51.998;4.502;2022-08-19T10:16:08;12.10;;;5.35;;
37091;SDS011;23005;51.998;4.502;2022-08-19T10:18:03;17.08;;;6.97;;
37091;SDS011;23005;51.998;4.502;2022-08-19T10:19:54;12.70;;;7.35;;
37091;SDS011;23005;51.998;4.502;2022-08-19T10:21:46;12.77;;;8.02;;
37091;SDS011;23005;51.998;4.502;2022-08-19T10:23:38;17.33;;;8.85;;
37091;SDS011;23005;51.998;4.502;2022-08-19T10:25:32;14.75;;;7.45;;
37091;SDS011;23005;51.998;4.502;2022-08-19T10:27:22;12.93;;;7.63;;
37091;SDS011;23005;51.998;4.502;2022-08-19T10:29:15;13.40;;;7.63;;
37091;SDS011;23005;51.998;4.502;2022-08-19T10:31:23;15.80;;;7.05;;
37091;SDS011;23005;51.998;4.502;2022-08-19T10:33:37;10.90;;;5.78;;
37091;SDS011;23005;51.998;4.502;2022-08-19T10:35:43;9.80;;;4.00;;
37091;SDS011;23005;51.998;4.502;2022-08-19T10:37:46;7.05;;;3.63;;
37091;SDS011;23005;51.998;4.502;2022-08-19T10:39:47;9.05;;;4.15;;
37091;SDS011;23005;51.998;4.502;2022-08-19T10:43:29;10.27;;;4.50;;
37091;SDS011;23005;51.998;4.502;2022-08-19T10:45:20;12.98;;;3.95;;
37091;SDS011;23005;51.998;4.502;2022-08-19T10:47:14;7.40;;;2.97;;
37091;SDS011;23005;51.998;4.502;2022-08-19T10:49:16;8.80;;;3.58;;
37091;SDS011;23005;51.998;4.502;2022-08-19T10:51:08;5.53;;;2.80;;
37091;SDS011;23005;51.998;4.502;2022-08-19T10:53:12;7.30;;;3.22;;
37091;SDS011;23005;51.998;4.502;2022-08-19T10:55:05;8.40;;;3.70;;
37091;SDS011;23005;51.998;4.502;2022-08-19T10:56:58;8.27;;;3.95;;
37091;SDS011;23005;51.998;4.502;2022-08-19T10:58:50;7.25;;;3.60;;
37091;SDS011;23005;51.998;4.502;2022-08-19T11:00:42;8.20;;;3.63;;
37091;SDS011;23005;51.998;4.502;2022-08-19T11:02:40;5.38;;;2.60;;
37091;SDS011;23005;51.998;4.502;2022-08-19T11:04:34;9.35;;;2.92;;
37091;SDS011;23005;51.998;4.502;2022-08-19T11:06:24;8.75;;;2.63;;
37091;SDS011;23005;51.998;4.502;2022-08-19T11:08:15;7.40;;;2.80;;
37091;SDS011;23005;51.998;4.502;2022-08-19T11:10:14;9.80;;;3.30;;
37091;SDS011;23005;51.998;4.502;2022-08-19T11:12:11;12.73;;;3.35;;
37091;SDS011;23005;51.998;4.502;2022-08-19T11:14:03;8.43;;;3.10;;
37091;SDS011;23005;51.998;4.502;2022-08-19T11:15:58;10.30;;;3.30;;
37091;SDS011;23005;51.998;4.502;2022-08-19T11:17:58;10.05;;;3.30;;
37091;SDS011;23005;51.998;4.502;2022-08-19T11:21:51;9.43;;;3.25;;
37091;SDS011;23005;51.998;4.502;2022-08-19T11:23:48;9.85;;;3.38;;
37091;SDS011;23005;51.998;4.502;2022-08-19T11:25:41;13.27;;;3.08;;
37091;SDS011;23005;51.998;4.502;2022-08-19T11:27:32;10.38;;;3.08;;
37091;SDS011;23005;51.998;4.502;2022-08-19T11:29:24;8.98;;;3.00;;
37091;SDS011;23005;51.998;4.502;2022-08-19T11:31:16;7.35;;;2.90;;
37091;SDS011;23005;51.998;4.502;2022-08-19T11:33:09;10.10;;;2.45;;
37091;SDS011;23005;51.998;4.502;2022-08-19T11:35:02;8.93;;;2.58;;
37091;SDS011;23005;51.998;4.502;2022-08-19T11:36:53;4.60;;;2.45;;
37091;SDS011;23005;51.998;4.502;2022-08-19T11:38:45;8.25;;;2.83;;